Time;durP1;ratioP1;P1;durP2;ratioP2;P2;SDS_P1;SDS_P2;PMS_P1;PMS_P2;Temp;Humidity;BMP_temperature;BMP_pressure;BME280_temperature;BME280_humidity;BME280_pressure;Samples;Min_cycle;Max_cycle;Signal;HPM_P1;HPM_P2
2023/09/02 00:00:30;;;;;;;2.30;1.80;;;20.50;68.90;;;;;;5052422;28;20084;-30
2023/09/02 00:02:58;;;;;;;2.17;1.75;;;18.90;77.50;;;;;;5052975;28;20124;-32
2023/09/02 00:05:25;;;;;;;2.13;1.75;;;20.70;86.70;;;;;;5052153;28;20079;-30
2023/09/02 00:07:51;;;;;;;2.05;1.75;;;20.30;79.50;;;;;;5058570;28;20127;-31
2023/09/02 00:10:18;;;;;;;2.00;1.60;;;20.20;86.70;;;;;;5072369;28;20132;-31
2023/09/02 00:12:45;;;;;;;1.98;1.40;;;;;;;;;;5071467;28;20072;-33
2023/09/02 00:15:12;;;;;;;2.20;1.77;;;19.70;86.40;;;;;;5072113;28;20106;-31
2023/09/02 00:17:39;;;;;;;2.72;1.80;;;20.50;87.40;;;;;;5064123;28;20561;-30
2023/09/02 00:20:08;;;;;;;2.10;1.80;;;20.10;68.70;;;;;;5051922;28;20224;-35
2023/09/02 00:22:35;;;;;;;2.80;1.70;;;;;;;;;;5051681;28;20139;-32
2023/09/02 00:25:02;;;;;;;2.17;1.60;;;20.40;81.40;;;;;;5051773;28;20128;-32
2023/09/02 00:27:29;;;;;;;2.40;1.67;;;21.00;86.70;;;;;;5051819;28;20103;-30
2023/09/02 00:29:56;;;;;;;2.20;1.70;;;19.90;86.10;;;;;;5051847;28;20753;-31
2023/09/02 00:32:23;;;;;;;1.95;1.70;;;19.20;86.10;;;;;;5051573;28;20124;-30
2023/09/02 00:34:50;;;;;;;2.03;1.70;;;;;;;;;;5052553;28;20110;-34
2023/09/02 00:37:18;;;;;;;2.03;1.70;;;19.00;85.60;;;;;;5063327;28;20135;-30
2023/09/02 00:39:45;;;;;;;2.30;1.70;;;21.10;87.10;;;;;;5071647;28;20135;-30
2023/09/02 00:42:12;;;;;;;2.25;1.70;;;19.70;86.10;;;;;;5071362;28;20132;-30
2023/09/02 00:44:39;;;;;;;2.40;1.80;;;19.70;77.60;;;;;;5071842;28;20406;-32
2023/09/02 00:47:05;;;;;;;2.45;1.80;;;20.10;86.20;;;;;;5071313;28;20136;-31
2023/09/02 00:49:32;;;;;;;1.98;1.67;;;20.40;86.40;;;;;;5064420;28;20131;-30
2023/09/02 00:51:59;;;;;;;1.58;1.48;;;;;;;;;;5050784;28;20124;-34
2023/09/02 00:54:27;;;;;;;1.73;1.50;;;20.00;68.50;;;;;;5050265;28;20056;-36
2023/09/02 00:56:54;;;;;;;2.33;1.70;;;;;;;;;;5051453;28;20454;-30
2023/09/02 00:59:21;;;;;;;1.52;1.42;;;18.90;72.80;;;;;;5051528;28;20128;-34
2023/09/02 01:01:47;;;;;;;1.60;1.50;;;20.10;86.60;;;;;;5051727;28;20135;-30
2023/09/02 01:04:14;;;;;;;1.83;1.50;;;19.70;86.00;;;;;;5050869;28;20565;-30
2023/09/02 01:06:41;;;;;;;1.90;1.63;;;;;;;;;;5052831;28;20463;-33
2023/09/02 01:09:08;;;;;;;1.98;1.63;;;19.90;86.50;;;;;;5072974;28;20131;-31
2023/09/02 01:11:36;;;;;;;2.20;1.70;;;19.90;68.50;;;;;;5075550;28;20048;-34
2023/09/02 01:14:03;;;;;;;2.20;1.75;;;;;;;;;;5074813;28;20151;-35
2023/09/02 01:16:30;;;;;;;1.88;1.50;;;19.60;85.90;;;;;;5075397;28;20139;-30
2023/09/02 01:18:57;;;;;;;2.40;1.80;;;;;;;;;;5075234;28;20054;-29
2023/09/02 01:21:47;;;;;;;2.53;1.75;;;20.00;86.50;;;;;;5068376;28;20465;-30
2023/09/02 01:24:46;;;;;;;2.15;1.65;;;19.90;68.50;;;;;;5046707;28;20124;-35
2023/09/02 01:27:19;;;;;;;2.15;1.80;;;19.90;68.50;;;;;;5055169;28;20084;-39
2023/09/02 01:29:49;;;;;;;2.00;1.60;;;20.00;86.50;;;;;;5054943;28;20206;-40
2023/09/02 01:32:16;;;;;;;3.83;1.80;;;19.70;72.40;;;;;;5054780;28;20562;-37
2023/09/02 01:34:43;;;;;;;1.75;1.58;;;20.10;76.00;;;;;;5054673;28;20128;-36
2023/09/02 01:37:09;;;;;;;2.00;1.52;;;19.80;86.80;;;;;;5061086;28;20045;-35
2023/09/02 01:39:37;;;;;;;1.67;1.50;;;19.60;74.80;;;;;;5054849;28;20128;-37
2023/09/02 01:42:04;;;;;;;1.98;1.50;;;20.40;69.10;;;;;;5054719;28;20422;-33
2023/09/02 01:44:32;;;;;;;1.92;1.63;;;19.60;85.90;;;;;;5054463;28;20124;-39
2023/09/02 01:47:01;;;;;;;2.55;1.73;;;20.10;86.20;;;;;;5054684;28;20124;-36
2023/09/02 01:49:27;;;;;;;2.00;1.60;;;20.80;86.50;;;;;;5054823;28;20053;-36
2023/09/02 01:51:54;;;;;;;2.88;1.60;;;;;;;;;;5054548;28;20565;-33
2023/09/02 01:54:21;;;;;;;1.92;1.73;;;19.40;86.10;;;;;;5055398;28;20557;-40
2023/09/02 01:56:48;;;;;;;2.70;2.20;;;19.60;85.90;;;;;;5054426;28;20131;-39
2023/09/02 01:59:15;;;;;;;1.85;1.63;;;;;;;;;;5054644;28;20136;-35
2023/09/02 02:01:43;;;;;;;2.00;1.70;;;21.00;86.70;;;;;;5066329;28;20132;-36
2023/09/02 02:04:12;;;;;;;2.10;1.80;;;20.10;86.20;;;;;;5074276;28;20128;-36
2023/09/02 02:06:39;;;;;;;2.00;1.70;;;19.80;68.30;;;;;;5074352;28;20091;-35
2023/09/02 02:09:06;;;;;;;1.98;1.70;;;20.20;86.20;;;;;;5073997;28;20136;-35
2023/09/02 02:11:32;;;;;;;2.80;1.77;;;;;;;;;;5074236;28;20056;-37
2023/09/02 02:14:01;;;;;;;1.65;1.50;;;19.50;72.90;;;;;;5073264;28;20417;-37
2023/09/02 02:16:28;;;;;;;1.85;1.50;;;20.10;86.60;;;;;;5074347;28;20417;-40
2023/09/02 02:18:56;;;;;;;1.83;1.50;;;19.70;85.90;;;;;;5073616;28;20139;-40
2023/09/02 02:21:23;;;;;;;2.05;1.67;;;19.80;86.10;;;;;;5074034;28;20127;-39
2023/09/02 02:23:50;;;;;;;2.20;1.52;;;;;;;;;;5073625;28;20512;-35
2023/09/02 02:26:17;;;;;;;3.28;1.80;;;20.10;75.70;;;;;;5074223;28;20060;-37
2023/09/02 02:28:44;;;;;;;2.00;1.67;;;;;;;;;;5074039;28;20131;-37
2023/09/02 02:31:11;;;;;;;1.98;1.70;;;20.00;86.20;;;;;;5072246;28;20485;-38
2023/09/02 02:33:38;;;;;;;2.10;1.70;;;;;;;;;;5073246;28;20055;-33
2023/09/02 02:36:09;;;;;;;1.80;1.50;;;19.60;86.20;;;;;;5073496;28;20139;-35
2023/09/02 02:38:36;;;;;;;1.80;1.50;;;;;;;;;;5073783;28;20416;-34
2023/09/02 02:41:03;;;;;;;1.88;1.60;;;19.90;69.10;;;;;;5073477;28;20448;-40
2023/09/02 02:43:30;;;;;;;2.33;1.70;;;;;;;;;;5073580;28;20053;-40
2023/09/02 02:45:57;;;;;;;1.92;1.73;;;;;;;;;;5066177;28;20554;-39
2023/09/02 02:48:27;;;;;;;2.38;1.60;;;19.70;68.20;;;;;;5053749;28;20094;-40
2023/09/02 02:50:54;;;;;;;2.20;1.67;;;19.90;86.50;;;;;;5053510;28;20085;-37
2023/09/02 02:53:22;;;;;;;2.45;1.50;;;19.60;73.90;;;;;;5053459;28;20051;-38
2023/09/02 02:55:49;;;;;;;2.35;1.60;;;;;;;;;;5024082;28;20157;-29
2023/09/02 02:58:16;;;;;;;1.77;1.60;;;;;;;;;;4934678;28;20064;-34
2023/09/02 03:00:43;;;;;;;2.28;1.80;;;19.40;86.10;;;;;;5053337;28;20572;-39
2023/09/02 03:03:10;;;;;;;2.33;1.65;;;;;;;;;;5071382;28;20135;-36
2023/09/02 03:05:37;;;;;;;2.50;1.60;;;19.90;76.60;;;;;;5073187;28;20127;-38
2023/09/02 03:08:05;;;;;;;2.05;1.55;;;19.30;85.70;;;;;;5073530;28;20045;-38
2023/09/02 03:10:35;;;;;;;2.22;1.50;;;19.70;68.20;;;;;;5073178;28;20139;-35
2023/09/02 03:13:02;;;;;;;2.22;1.60;;;19.50;83.80;;;;;;5073050;28;20051;-35
2023/09/02 03:15:29;;;;;;;2.13;1.63;;;20.10;86.30;;;;;;5073202;28;20103;-39
2023/09/02 03:17:55;;;;;;;1.80;1.50;;;20.20;80.70;;;;;;5072254;28;20064;-36
2023/09/02 03:20:22;;;;;;;2.20;1.63;;;19.70;86.00;;;;;;5072941;28;20079;-39
2023/09/02 03:22:49;;;;;;;1.90;1.60;;;;;;;;;;5073000;28;20131;-39
2023/09/02 03:25:16;;;;;;;1.70;1.50;;;19.70;86.40;;;;;;5072735;28;20132;-38
2023/09/02 03:27:44;;;;;;;1.70;1.35;;;19.40;85.90;;;;;;5072706;28;20549;-38
2023/09/02 03:30:11;;;;;;;1.83;1.63;;;18.40;67.60;;;;;;5071969;28;20088;-36
2023/09/02 03:32:38;;;;;;;2.35;1.65;;;19.90;86.40;;;;;;5070674;28;20139;-39
2023/09/02 03:35:07;;;;;;;2.10;1.65;;;19.50;85.90;;;;;;5072964;28;20469;-38
2023/09/02 03:37:34;;;;;;;2.15;1.70;;;19.80;83.20;;;;;;5072433;28;20062;-37
2023/09/02 03:40:04;;;;;;;1.80;1.60;;;19.70;86.40;;;;;;5072302;28;20135;-38
2023/09/02 03:42:31;;;;;;;1.90;1.60;;;19.40;85.90;;;;;;5072542;28;20080;-37
2023/09/02 03:44:59;;;;;;;3.75;1.70;;;19.60;68.20;;;;;;5072364;28;20123;-30
2023/09/02 03:47:26;;;;;;;2.17;1.50;;;;;;;;;;5072363;28;20565;-35
2023/09/02 03:49:53;;;;;;;1.90;1.55;;;18.60;85.40;;;;;;5061519;28;20473;-38
2023/09/02 03:52:19;;;;;;;1.88;1.50;;;20.10;84.90;;;;;;5052319;28;20131;-35
2023/09/02 03:54:46;;;;;;;2.28;1.70;;;;;;;;;;5052212;28;20592;-33
2023/09/02 03:57:13;;;;;;;1.90;1.70;;;;;;;;;;5052318;28;20128;-40
2023/09/02 03:59:40;;;;;;;2.05;1.52;;;;;;;;;;5071068;28;20151;-35
2023/09/02 04:02:08;;;;;;;2.03;1.67;;;19.60;68.20;;;;;;5072167;28;20131;-38
2023/09/02 04:04:35;;;;;;;1.90;1.63;;;19.90;86.40;;;;;;5070614;28;20124;-35
2023/09/02 04:07:02;;;;;;;1.83;1.48;;;19.60;86.50;;;;;;5052290;28;20128;-37
2023/09/02 04:09:29;;;;;;;1.63;1.40;;;;;;;;;;5071649;28;20565;-37
2023/09/02 04:11:56;;;;;;;2.20;1.50;;;18.80;84.30;;;;;;5071843;28;20565;-37
2023/09/02 04:14:23;;;;;;;1.63;1.40;;;;;;;;;;5071478;28;20131;-33
2023/09/02 04:16:50;;;;;;;1.92;1.40;;;19.80;86.10;;;;;;5072145;28;20450;-39
2023/09/02 04:19:18;;;;;;;1.77;1.50;;;19.70;83.80;;;;;;5072111;28;20131;-37
2023/09/02 04:21:45;;;;;;;2.50;1.70;;;;;;;;;;5059922;28;20049;-37
2023/09/02 04:24:12;;;;;;;1.77;1.60;;;;;;;;;;5051849;28;20134;-38
2023/09/02 04:26:39;;;;;;;1.65;1.50;;;19.70;86.40;;;;;;5051670;28;20495;-39
2023/09/02 04:29:05;;;;;;;2.40;1.60;;;19.10;79.20;;;;;;5051851;28;20160;-37
2023/09/02 04:31:32;;;;;;;2.10;1.58;;;19.60;86.10;;;;;;5051699;28;20505;-40
2023/09/02 04:33:59;;;;;;;1.83;1.60;;;;;;;;;;5051412;28;20132;-40
2023/09/02 04:36:29;;;;;;;2.42;1.70;;;20.00;86.30;;;;;;5055765;28;20044;-38
2023/09/02 04:38:56;;;;;;;1.55;1.40;;;20.00;71.30;;;;;;5051547;28;20052;-34
2023/09/02 04:41:23;;;;;;;1.98;1.70;;;;;;;;;;5051513;28;20076;-33
2023/09/02 04:43:50;;;;;;;2.10;1.50;;;;;;;;;;5051310;28;20048;-37
2023/09/02 04:46:17;;;;;;;1.85;1.50;;;19.80;86.90;;;;;;5051732;28;20172;-39
2023/09/02 04:48:46;;;;;;;2.85;1.70;;;19.60;86.50;;;;;;5051787;28;20099;-38
2023/09/02 04:51:13;;;;;;;1.85;1.65;;;19.70;80.20;;;;;;5051689;28;20056;-38
2023/09/02 04:53:41;;;;;;;2.15;1.67;;;19.50;68.20;;;;;;5051012;28;20080;-36
2023/09/02 04:56:08;;;;;;;1.92;1.60;;;19.50;68.10;;;;;;5071369;28;20136;-37
2023/09/02 04:58:35;;;;;;;2.05;1.80;;;19.90;86.60;;;;;;5071686;28;20136;-40
2023/09/02 05:01:09;;;;;;;2.45;1.90;;;19.80;86.20;;;;;;5071727;28;20123;-39
2023/09/02 05:03:35;;;;;;;2.10;1.70;;;19.60;86.20;;;;;;5071241;28;20060;-39
2023/09/02 05:06:05;;;;;;;1.83;1.67;;;;;;;;;;5071551;28;20124;-36
2023/09/02 05:08:34;;;;;;;2.58;1.80;;;19.90;86.60;;;;;;5070584;28;20090;-37
2023/09/02 05:11:03;;;;;;;2.10;1.75;;;19.10;74.30;;;;;;5051723;28;20102;-36
2023/09/02 05:13:30;;;;;;;2.05;1.83;;;19.00;86.20;;;;;;5051402;28;20071;-39
2023/09/02 05:15:57;;;;;;;2.08;1.77;;;19.40;76.30;;;;;;5051208;28;20045;-37
2023/09/02 05:18:24;;;;;;;2.33;1.70;;;;;;;;;;5051531;28;20124;-36
2023/09/02 05:20:54;;;;;;;3.13;1.92;;;19.30;68.10;;;;;;5051322;28;20056;-35
2023/09/02 05:23:21;;;;;;;2.20;1.98;;;19.60;82.80;;;;;;5051642;28;20131;-38
2023/09/02 05:25:53;;;;;;;2.58;1.80;;;19.40;86.50;;;;;;5052536;28;20076;-35
2023/09/02 05:28:21;;;;;;;1.90;1.70;;;19.80;68.40;;;;;;5051587;28;20132;-40
2023/09/02 05:30:48;;;;;;;1.90;1.70;;;20.40;86.90;;;;;;5051088;28;20135;-38
2023/09/02 05:33:16;;;;;;;2.38;1.90;;;19.30;86.10;;;;;;5053364;28;20127;-38
2023/09/02 05:35:43;;;;;;;2.22;1.75;;;19.30;86.30;;;;;;5061508;28;20108;-37
2023/09/02 05:38:10;;;;;;;1.88;1.67;;;;;;;;;;5059017;28;20136;-38
2023/09/02 05:40:39;;;;;;;2.38;1.83;;;19.70;86.20;;;;;;5060726;28;20056;-39
2023/09/02 05:43:06;;;;;;;2.72;1.70;;;19.70;81.30;;;;;;5058635;28;20139;-39
2023/09/02 05:45:34;;;;;;;1.95;1.70;;;19.20;86.10;;;;;;5060415;28;20132;-40
2023/09/02 05:48:02;;;;;;;2.45;1.80;;;19.20;86.10;;;;;;5059761;28;20131;-39
2023/09/02 05:50:28;;;;;;;2.83;2.05;;;19.70;86.20;;;;;;5061640;28;20052;-39
2023/09/02 05:52:55;;;;;;;2.20;1.80;;;19.60;86.70;;;;;;5060599;28;20132;-38
2023/09/02 05:55:22;;;;;;;2.55;1.85;;;19.70;72.00;;;;;;5062847;28;20175;-40
2023/09/02 05:57:48;;;;;;;2.13;1.70;;;19.90;86.80;;;;;;5053902;28;20133;-37
2023/09/02 06:00:16;;;;;;;3.22;2.00;;;18.20;86.00;;;;;;5054240;28;20128;-38
2023/09/02 06:02:44;;;;;;;2.67;1.90;;;20.50;70.90;;;;;;5053708;28;20577;-38
2023/09/02 06:05:10;;;;;;;2.35;2.00;;;19.80;81.80;;;;;;5054052;28;20139;-39
2023/09/02 06:07:37;;;;;;;2.63;2.00;;;19.60;71.30;;;;;;5058591;28;20131;-37
2023/09/02 06:10:04;;;;;;;2.35;1.98;;;19.70;86.40;;;;;;5062899;28;20476;-38
2023/09/02 06:12:31;;;;;;;2.45;2.05;;;19.40;86.70;;;;;;5064538;28;20135;-35
2023/09/02 06:14:58;;;;;;;3.38;2.03;;;;;;;;;;5062430;28;20045;-37
2023/09/02 06:17:30;;;;;;;3.60;1.90;;;18.90;71.10;;;;;;5064834;28;20044;-39
2023/09/02 06:19:58;;;;;;;2.20;2.00;;;19.90;76.60;;;;;;5061816;28;20079;-37
2023/09/02 06:22:25;;;;;;;2.90;2.33;;;20.20;86.80;;;;;;5064710;28;20132;-38
2023/09/02 06:24:53;;;;;;;2.53;2.00;;;19.00;86.50;;;;;;5063311;28;20124;-36
2023/09/02 06:27:20;;;;;;;4.00;1.95;;;18.30;85.80;;;;;;5062988;28;20066;-36
2023/09/02 06:29:47;;;;;;;2.10;1.83;;;;;;;;;;5062569;28;20486;-35
2023/09/02 06:32:14;;;;;;;2.70;1.88;;;18.90;86.40;;;;;;5063380;28;20469;-38
2023/09/02 06:34:41;;;;;;;2.65;1.80;;;19.60;86.60;;;;;;5062652;28;20079;-40
2023/09/02 06:37:09;;;;;;;2.55;2.20;;;19.70;72.80;;;;;;5057430;28;20569;-35
2023/09/02 06:39:35;;;;;;;2.47;2.00;;;19.10;74.30;;;;;;5062530;28;20045;-36
2023/09/02 06:42:02;;;;;;;2.28;2.05;;;19.40;86.30;;;;;;5063475;28;20578;-36
2023/09/02 06:44:29;;;;;;;2.55;1.90;;;19.50;86.80;;;;;;5064374;28;20377;-39
2023/09/02 06:46:55;;;;;;;2.42;1.80;;;19.90;71.10;;;;;;5060549;28;20124;-38
2023/09/02 06:49:22;;;;;;;2.65;2.13;;;19.90;86.90;;;;;;5067703;28;20578;-35
2023/09/02 06:51:49;;;;;;;2.00;1.80;;;;;;;;;;5073479;28;20060;-40
2023/09/02 06:54:17;;;;;;;1.90;1.70;;;19.10;86.20;;;;;;5073498;28;20520;-37
2023/09/02 06:56:45;;;;;;;2.38;1.90;;;19.10;86.20;;;;;;5073137;28;20132;-38
2023/09/02 06:59:11;;;;;;;2.38;1.83;;;20.40;86.80;;;;;;5073571;28;20645;-39
2023/09/02 07:01:38;;;;;;;3.03;1.80;;;19.90;79.80;;;;;;5060561;28;20087;-38
2023/09/02 07:04:05;;;;;;;3.58;2.08;;;19.90;86.30;;;;;;5053168;28;20561;-39
2023/09/02 07:06:31;;;;;;;1.90;1.70;;;19.90;71.70;;;;;;5053269;28;20127;-35
2023/09/02 07:08:59;;;;;;;4.53;1.95;;;;;;;;;;5068981;28;20128;-35
2023/09/02 07:11:27;;;;;;;2.28;1.80;;;20.40;86.40;;;;;;5073542;28;20056;-39
2023/09/02 07:13:54;;;;;;;2.30;1.90;;;20.40;86.30;;;;;;5072638;28;20082;-39
2023/09/02 07:16:21;;;;;;;4.35;1.77;;;;;;;;;;5073379;28;20094;-35
2023/09/02 07:18:47;;;;;;;3.00;1.88;;;20.20;86.10;;;;;;5073376;28;20135;-40
2023/09/02 07:21:14;;;;;;;4.85;1.85;;;20.10;85.90;;;;;;5065426;28;20148;-39
2023/09/02 07:23:41;;;;;;;5.63;1.83;;;21.20;84.70;;;;;;5064894;28;20051;-37
2023/09/02 07:26:08;;;;;;;3.33;1.65;;;20.40;85.60;;;;;;5069673;28;20163;-40
2023/09/02 07:28:37;;;;;;;4.30;1.70;;;20.50;67.60;;;;;;5072918;28;20127;-33
2023/09/02 07:31:05;;;;;;;1.92;1.60;;;19.60;77.10;;;;;;5060418;28;20497;-37
2023/09/02 07:33:31;;;;;;;3.08;1.52;;;21.00;85.30;;;;;;5052771;28;20049;-38
2023/09/02 07:35:59;;;;;;;1.98;1.70;;;20.60;84.70;;;;;;5052255;28;20482;-37
2023/09/02 07:38:25;;;;;;;2.40;1.90;;;21.30;85.10;;;;;;5072824;28;20058;-30
2023/09/02 07:40:52;;;;;;;2.40;1.55;;;21.80;85.00;;;;;;5072770;28;20139;-30
2023/09/02 07:43:19;;;;;;;3.90;1.85;;;;;;;;;;5072164;28;20052;-35
2023/09/02 07:45:49;;;;;;;4.47;1.77;;;20.90;84.10;;;;;;5072037;28;20131;-30
2023/09/02 07:48:16;;;;;;;2.10;1.63;;;;;;;;;;5069005;28;20090;-33
2023/09/02 07:50:42;;;;;;;3.15;1.77;;;20.70;84.20;;;;;;5064140;28;20144;-31
2023/09/02 07:53:09;;;;;;;3.35;1.67;;;21.80;84.50;;;;;;5072102;28;20510;-30
2023/09/02 07:55:36;;;;;;;1.88;1.70;;;21.10;83.70;;;;;;5072467;28;20044;-31
2023/09/02 07:58:03;;;;;;;1.80;1.55;;;20.90;83.60;;;;;;5072824;28;20131;-36
2023/09/02 08:00:30;;;;;;;3.55;1.73;;;22.20;80.20;;;;;;5054508;28;20413;-38
2023/09/02 08:02:59;;;;;;;2.58;1.50;;;20.90;83.60;;;;;;5052204;28;20699;-38
2023/09/02 08:05:26;;;;;;;1.50;1.33;;;21.40;80.30;;;;;;5052241;28;20125;-37
2023/09/02 08:07:53;;;;;;;1.75;1.50;;;21.60;77.80;;;;;;5059219;28;20135;-35
2023/09/02 08:10:20;;;;;;;2.25;1.63;;;21.50;83.10;;;;;;5072534;28;20123;-38
2023/09/02 08:12:46;;;;;;;2.28;1.50;;;21.60;73.70;;;;;;5071980;28;20131;-35
2023/09/02 08:15:13;;;;;;;1.90;1.42;;;21.00;83.00;;;;;;5062166;28;20494;-38
2023/09/02 08:17:41;;;;;;;2.42;1.40;;;22.40;83.30;;;;;;5051726;28;20614;-35
2023/09/02 08:20:09;;;;;;;1.85;1.52;;;21.50;83.00;;;;;;5052041;28;20131;-38
2023/09/02 08:22:39;;;;;;;2.13;1.70;;;;;;;;;;5051783;28;20578;-33
2023/09/02 08:25:06;;;;;;;2.10;1.58;;;21.00;82.20;;;;;;5052102;28;20072;-36
2023/09/02 08:27:33;;;;;;;1.70;1.45;;;;;;;;;;5052237;28;20127;-35
2023/09/02 08:30:00;;;;;;;1.88;1.40;;;22.20;68.70;;;;;;5053366;28;20134;-36
2023/09/02 08:32:27;;;;;;;2.20;1.60;;;;;;;;;;5059115;28;20123;-31
2023/09/02 08:34:54;;;;;;;1.90;1.50;;;22.70;82.90;;;;;;5071725;28;20135;-31
2023/09/02 08:37:22;;;;;;;2.60;1.60;;;21.70;82.50;;;;;;5071255;28;20780;-32
2023/09/02 08:39:50;;;;;;;3.80;1.52;;;21.80;82.40;;;;;;5071435;28;20132;-37
2023/09/02 08:42:18;;;;;;;2.97;1.65;;;22.40;75.70;;;;;;5071759;28;20049;-35
2023/09/02 08:44:46;;;;;;;2.78;1.77;;;22.40;82.30;;;;;;5071905;28;20497;-35
2023/09/02 08:47:12;;;;;;;2.45;1.70;;;23.30;82.70;;;;;;5058552;28;20079;-37
2023/09/02 08:49:39;;;;;;;2.95;2.00;;;;;;;;;;5051778;28;20140;-35
2023/09/02 08:52:07;;;;;;;2.00;1.70;;;22.20;82.10;;;;;;5051815;28;20136;-35
2023/09/02 08:54:36;;;;;;;2.33;1.90;;;22.10;81.80;;;;;;5051505;28;20051;-38
2023/09/02 08:57:02;;;;;;;2.28;1.83;;;21.80;82.10;;;;;;5051696;28;20055;-37
2023/09/02 08:59:29;;;;;;;2.38;1.90;;;23.30;82.90;;;;;;5051665;28;20132;-37
2023/09/02 09:01:56;;;;;;;2.97;2.30;;;22.20;77.30;;;;;;5053366;28;20137;-38
2023/09/02 09:04:23;;;;;;;3.22;2.53;;;21.20;81.30;;;;;;5071378;28;20052;-40
2023/09/02 09:06:49;;;;;;;3.60;2.60;;;22.20;81.80;;;;;;5071695;28;20123;-36
2023/09/02 09:09:16;;;;;;;4.68;2.50;;;23.20;78.50;;;;;;5071746;28;20464;-36
2023/09/02 09:11:44;;;;;;;5.05;3.70;;;21.40;82.10;;;;;;5071418;28;20135;-37
2023/09/02 09:14:12;;;;;;;4.13;3.00;;;23.40;82.20;;;;;;5070367;28;20147;-38
2023/09/02 09:16:40;;;;;;;4.18;2.83;;;22.20;81.50;;;;;;5060648;28;20111;-36
2023/09/02 09:19:06;;;;;;;4.68;2.90;;;22.00;80.60;;;;;;5060627;28;20131;-36
2023/09/02 09:21:33;;;;;;;4.13;3.10;;;21.70;81.60;;;;;;5060949;28;20124;-38
2023/09/02 09:24:00;;;;;;;4.40;3.72;;;22.30;81.40;;;;;;5057275;28;20124;-39
2023/09/02 09:26:26;;;;;;;5.53;3.10;;;22.30;74.50;;;;;;5051187;28;20123;-36
2023/09/02 09:28:56;;;;;;;3.55;3.00;;;22.20;82.10;;;;;;5061159;28;20131;-40
2023/09/02 09:31:23;;;;;;;5.25;3.20;;;;;;;;;;5054953;28;20049;-36
2023/09/02 09:33:51;;;;;;;5.63;3.47;;;22.10;81.80;;;;;;5054501;28;20041;-38
2023/09/02 09:36:21;;;;;;;4.40;2.83;;;22.50;81.70;;;;;;5059745;28;20167;-36
2023/09/02 09:38:48;;;;;;;4.22;2.80;;;23.50;74.20;;;;;;5064128;28;20397;-36
2023/09/02 09:41:15;;;;;;;4.22;2.72;;;;;;;;;;5063821;28;20128;-35
2023/09/02 09:43:42;;;;;;;3.72;2.72;;;;;;;;;;5060884;28;20128;-36
2023/09/02 09:46:13;;;;;;;4.65;3.40;;;21.70;68.00;;;;;;5061650;28;20131;-37
2023/09/02 09:48:46;;;;;;;4.47;3.30;;;22.10;81.50;;;;;;5062650;28;20131;-32
2023/09/02 09:51:21;;;;;;;5.47;3.15;;;21.80;81.40;;;;;;5067515;28;20135;-30
2023/09/02 09:53:48;;;;;;;3.97;3.10;;;;;;;;;;5064804;28;20131;-32
2023/09/02 09:56:15;;;;;;;3.10;2.60;;;22.10;64.70;;;;;;5062571;28;20125;-35
2023/09/02 09:58:42;;;;;;;6.18;3.00;;;21.90;82.20;;;;;;5054454;28;20147;-32
2023/09/02 10:01:11;;;;;;;4.28;3.08;;;23.00;82.10;;;;;;5055455;28;20141;-31
2023/09/02 10:03:38;;;;;;;4.80;3.03;;;;;;;;;;5068253;28;20096;-34
2023/09/02 10:06:05;;;;;;;4.53;2.88;;;22.40;82.60;;;;;;5054614;28;20132;-40
2023/09/02 10:08:50;;;;;;;3.97;2.70;;;22.10;64.70;;;;;;5066284;28;20124;-36
2023/09/02 10:11:24;;;;;;;4.13;2.70;;;21.10;81.30;;;;;;5074384;28;20517;-37
2023/09/02 10:13:53;;;;;;;3.35;2.50;;;22.50;81.60;;;;;;5068375;28;20044;-39
2023/09/02 10:16:22;;;;;;;4.28;2.70;;;22.60;78.90;;;;;;5054338;28;20128;-38
2023/09/02 10:18:49;;;;;;;4.57;2.78;;;22.00;81.60;;;;;;5057100;28;20529;-38
2023/09/02 10:21:16;;;;;;;5.15;2.60;;;22.90;82.10;;;;;;5074294;28;20139;-40
2023/09/02 10:23:45;;;;;;;3.95;2.60;;;22.10;81.20;;;;;;5063489;28;20049;-37
2023/09/02 10:26:14;;;;;;;3.88;2.70;;;22.50;81.40;;;;;;5054299;28;20135;-36
2023/09/02 10:28:41;;;;;;;3.92;2.58;;;21.90;81.00;;;;;;5054104;28;20131;-38
2023/09/02 10:31:12;;;;;;;3.88;2.80;;;21.30;80.60;;;;;;5056768;28;20091;-38
2023/09/02 10:33:43;;;;;;;3.97;2.90;;;21.90;65.00;;;;;;5053915;28;20088;-36
2023/09/02 10:36:09;;;;;;;3.60;3.15;;;22.50;81.50;;;;;;5056203;28;20189;-39
2023/09/02 10:38:38;;;;;;;5.18;2.97;;;22.20;64.30;;;;;;5074347;28;20132;-38
2023/09/02 10:41:11;;;;;;;5.65;3.47;;;22.40;81.50;;;;;;5073223;28;20135;-36
2023/09/02 10:43:38;;;;;;;4.97;3.40;;;22.20;81.00;;;;;;5073379;28;20581;-37
2023/09/02 10:46:05;;;;;;;5.03;3.30;;;21.80;69.40;;;;;;5073221;28;20127;-38
2023/09/02 10:48:33;;;;;;;4.85;3.60;;;22.10;81.70;;;;;;5073849;28;20135;-35
2023/09/02 10:51:01;;;;;;;5.32;3.70;;;23.10;79.00;;;;;;5073834;28;20140;-35
2023/09/02 10:53:55;;;;;;;7.47;3.40;;;22.70;76.30;;;;;;5073184;28;20127;-35
2023/09/02 10:56:25;;;;;;;4.50;3.30;;;22.40;64.30;;;;;;5073468;28;20132;-33
2023/09/02 10:58:51;;;;;;;5.22;3.47;;;22.70;76.20;;;;;;5073676;28;20136;-35
2023/09/02 11:01:18;;;;;;;4.38;3.50;;;22.40;66.80;;;;;;5072094;28;20123;-37
2023/09/02 11:03:47;;;;;;;4.32;3.08;;;22.70;81.00;;;;;;5073227;28;20127;-35
2023/09/02 11:06:16;;;;;;;4.72;3.35;;;21.60;63.70;;;;;;5073468;28;20079;-32
2023/09/02 11:08:46;;;;;;;4.25;3.08;;;22.40;64.10;;;;;;5073210;28;20083;-36
2023/09/02 11:11:13;;;;;;;5.03;3.10;;;;;;;;;;5073169;28;20048;-35
2023/09/02 11:14:17;;;;;;;4.05;3.15;;;22.80;81.40;;;;;;5073011;28;20067;-37
2023/09/02 11:16:44;;;;;;;4.65;3.00;;;23.40;81.40;;;;;;5070985;28;20388;-37
2023/09/02 11:19:12;;;;;;;5.53;3.30;;;21.40;80.40;;;;;;5053033;28;20045;-37
2023/09/02 11:21:40;;;;;;;4.47;3.22;;;22.90;81.50;;;;;;5053389;28;20052;-37
2023/09/02 11:24:14;;;;;;;5.03;3.20;;;23.20;65.90;;;;;;5052812;28;20084;-36
2023/09/02 11:26:51;;;;;;;4.43;3.10;;;22.10;80.70;;;;;;5051222;28;20468;-38
2023/09/02 11:29:22;;;;;;;6.13;3.00;;;22.30;64.10;;;;;;5066577;28;20553;-35
2023/09/02 11:31:55;;;;;;;5.90;3.08;;;22.30;64.20;;;;;;5071815;28;20155;-34
2023/09/02 11:34:22;;;;;;;4.68;3.08;;;;;;;;;;5058535;28;20115;-35
2023/09/02 11:36:51;;;;;;;5.03;2.75;;;22.00;80.80;;;;;;5060644;28;20127;-36
2023/09/02 11:39:18;;;;;;;5.20;3.15;;;22.40;81.10;;;;;;5072545;28;20049;-39
2023/09/02 11:41:45;;;;;;;3.90;2.90;;;21.80;68.80;;;;;;5072374;28;20494;-36
2023/09/02 11:44:12;;;;;;;4.72;2.63;;;22.40;81.50;;;;;;5072381;28;20128;-39
2023/09/02 11:46:39;;;;;;;4.97;3.13;;;;;;;;;;5072869;28;20124;-37
2023/09/02 11:49:12;;;;;;;3.28;2.55;;;21.70;81.50;;;;;;5067836;28;20048;-37
2023/09/02 11:51:39;;;;;;;2.95;2.47;;;;;;;;;;5056933;28;20053;-34
2023/09/02 11:54:07;;;;;;;4.38;2.70;;;22.50;81.40;;;;;;5052313;28;20131;-36
2023/09/02 11:56:35;;;;;;;6.05;2.75;;;22.60;66.70;;;;;;5051969;28;20048;-35
2023/09/02 11:59:02;;;;;;;3.47;2.47;;;23.10;81.50;;;;;;5052601;28;20462;-37
2023/09/02 12:01:28;;;;;;;4.03;2.70;;;22.80;82.20;;;;;;5052631;28;20136;-38
2023/09/02 12:03:56;;;;;;;5.57;2.75;;;22.30;64.30;;;;;;5055035;28;20474;-38
2023/09/02 12:06:22;;;;;;;4.68;2.58;;;23.20;82.40;;;;;;5072384;28;20127;-39
2023/09/02 12:08:50;;;;;;;4.78;3.10;;;;;;;;;;5072033;28;20124;-36
2023/09/02 12:11:18;;;;;;;4.55;2.58;;;22.30;64.30;;;;;;5072208;28;20053;-35
2023/09/02 12:13:45;;;;;;;3.05;2.42;;;;;;;;;;5071752;28;20438;-36
2023/09/02 12:16:16;;;;;;;3.72;2.30;;;23.00;82.20;;;;;;5072288;28;20127;-31
2023/09/02 12:18:43;;;;;;;3.72;2.50;;;21.90;81.70;;;;;;5067511;28;20052;-32
2023/09/02 12:21:10;;;;;;;4.13;2.50;;;;;;;;;;5058953;28;20598;-36
2023/09/02 12:23:36;;;;;;;4.15;2.80;;;22.50;81.20;;;;;;5060378;28;20451;-31
2023/09/02 12:26:05;;;;;;;3.65;2.47;;;22.40;80.90;;;;;;5063525;28;20129;-31
2023/09/02 12:28:33;;;;;;;3.28;2.42;;;22.90;81.10;;;;;;5058112;28;20045;-31
2023/09/02 12:31:00;;;;;;;4.30;2.40;;;;;;;;;;5052051;28;20124;-32
2023/09/02 12:33:26;;;;;;;3.20;2.58;;;22.60;79.10;;;;;;5051610;28;20132;-38
2023/09/02 12:35:53;;;;;;;4.20;2.70;;;22.90;73.80;;;;;;5053038;28;20418;-37
2023/09/02 12:38:20;;;;;;;3.17;2.40;;;;;;;;;;5071387;28;20140;-38
2023/09/02 12:40:52;;;;;;;3.38;2.38;;;22.20;65.90;;;;;;5071819;28;20048;-36
2023/09/02 12:43:23;;;;;;;8.07;3.10;;;21.40;80.80;;;;;;5071444;28;20131;-36
2023/09/02 12:45:52;;;;;;;2.78;2.20;;;22.30;74.40;;;;;;5071772;28;20054;-38
2023/09/02 12:48:19;;;;;;;3.72;2.50;;;;;;;;;;5071751;28;20454;-37
2023/09/02 12:50:46;;;;;;;3.78;2.58;;;22.30;81.40;;;;;;5071781;28;20190;-36
2023/09/02 12:53:13;;;;;;;3.55;2.40;;;23.50;82.00;;;;;;5061081;28;20055;-37
2023/09/02 12:55:40;;;;;;;3.20;2.58;;;23.00;66.80;;;;;;5051903;28;20140;-32
2023/09/02 12:58:07;;;;;;;4.32;2.53;;;22.30;71.70;;;;;;5051885;28;20132;-31
2023/09/02 13:00:34;;;;;;;4.50;2.40;;;22.70;82.10;;;;;;5051373;28;20462;-32
2023/09/02 13:03:02;;;;;;;4.72;2.55;;;22.10;82.00;;;;;;5052906;28;20127;-31
2023/09/02 13:05:29;;;;;;;4.55;2.45;;;22.20;81.30;;;;;;5055709;28;20131;-31
2023/09/02 13:07:56;;;;;;;2.97;2.25;;;;;;;;;;5062277;28;20132;-33
2023/09/02 13:10:22;;;;;;;4.40;2.50;;;22.30;81.30;;;;;;5074788;28;20131;-31